Carmel, IN (46033)

4:49 AM EST on February 13, 2016 (GMT -0500)
Bayhill-Carmel | | Change Station
CLOSE
Current Station
Personal Weather Station
Location: Carmel, IN
Elevation: 778 ft
Nearby Weather Stations

Elev 778 ft 39.97 °N, 86.08 °W | Updated 15 seconds ago

Partly Cloudy
Partly Cloudy
11.3 °F
Feels Like 4 °F
N
4.3
Wind Variable Wind from WSW
Gusts 4.9 mph

Today
High -- | Low -- °F
--% Chance of Precip.
Yesterday
High -- | Low -- °F
Precip. -- in
Pressure 30.44 in
Visibility 10.0 miles
Clouds Clear
Windchill 4 °F
Dew Point -7 °F
Humidity 43%
Rainfall 0.00 in
Snow Depth Not available.
7:40 AM 6:17 PM
Waxing Crescent, 29% visible
METAR KTYQ 130935Z AUTO 31009KT 10SM CLR M13/M19 A3044 RMK AO2 T11321190
Pressure 30.44 in
Visibility 10.0 miles
Clouds Clear
Windchill 4 °F
Dew Point -7 °F
Humidity 43%
Rainfall 0.00 in
Snow Depth Not available.
7:40 AM 6:17 PM
Waxing Crescent, 29% visible
METAR KTYQ 130935Z AUTO 31009KT 10SM CLR M13/M19 A3044 RMK AO2 T11321190

10-Day Weather Forecast

Almanac

Astronomy

Feb. 13, 2016 Rise Set
Actual Time
Civil Twilight
Nautical Twilight
Astronomical Twilight
Moon
Length of Visible Light
Length of Day
Tomorrow will be .
, % of the Moon is Illuminated

Today's Extremes

State Highs State Lows

Community

WunderPhotos

Upload Photos

1,892,536 photos uploaded!

WunderBlog® & News

Nearby

Air Quality

  Air Quality AQ Index Pollutant
Not available.

Snow Depth

Station Depth Elevation

Earthquake Activity

City Distance Mag. Time & Date
Minimum magnitude displayed is 2.5.

Coastal Water Temperatures

Place Temperature

Stations

Nearby Weather Stations

Station Location Temp. Windchill Dew Point Humidity Wind Precip. Elev Updated Type
                   

Watches & Warnings

There are currently no watches in effect.